sensor_id;sensor_type;location;lat;lon;timestamp;temperature;humidity
60234;DHT22;49514;43.538;-5.708;2023-09-19T00:00:41;19.30;99.90
60234;DHT22;49514;43.538;-5.708;2023-09-19T00:03:09;19.30;99.90
60234;DHT22;49514;43.538;-5.708;2023-09-19T00:05:39;19.30;99.90
60234;DHT22;49514;43.538;-5.708;2023-09-19T00:08:05;19.30;99.90
60234;DHT22;49514;43.538;-5.708;2023-09-19T00:10:33;19.30;99.90
60234;DHT22;49514;43.538;-5.708;2023-09-19T00:13:03;19.30;99.90
60234;DHT22;49514;43.538;-5.708;2023-09-19T00:15:47;19.40;99.90
60234;DHT22;49514;43.538;-5.708;2023-09-19T00:18:18;19.30;99.90
60234;DHT22;49514;43.538;-5.708;2023-09-19T00:20:48;19.40;99.90
60234;DHT22;49514;43.538;-5.708;2023-09-19T00:23:15;19.40;99.90
60234;DHT22;49514;43.538;-5.708;2023-09-19T00:25:42;19.50;99.90
60234;DHT22;49514;43.538;-5.708;2023-09-19T00:28:09;19.50;99.90
60234;DHT22;49514;43.538;-5.708;2023-09-19T00:30:36;19.50;99.90
60234;DHT22;49514;43.538;-5.708;2023-09-19T00:33:05;19.50;99.90
60234;DHT22;49514;43.538;-5.708;2023-09-19T00:35:34;19.60;99.90
60234;DHT22;49514;43.538;-5.708;2023-09-19T00:38:01;19.60;99.90
60234;DHT22;49514;43.538;-5.708;2023-09-19T00:40:29;19.50;99.90
60234;DHT22;49514;43.538;-5.708;2023-09-19T00:42:59;19.60;99.90
60234;DHT22;49514;43.538;-5.708;2023-09-19T00:45:26;19.60;99.90
60234;DHT22;49514;43.538;-5.708;2023-09-19T00:47:55;19.60;99.90
60234;DHT22;49514;43.538;-5.708;2023-09-19T00:50:24;19.60;99.90
60234;DHT22;49514;43.538;-5.708;2023-09-19T00:52:54;19.60;99.90
60234;DHT22;49514;43.538;-5.708;2023-09-19T00:55:25;19.60;99.90
60234;DHT22;49514;43.538;-5.708;2023-09-19T00:57:52;19.60;99.90
60234;DHT22;49514;43.538;-5.708;2023-09-19T01:00:19;19.50;99.90
60234;DHT22;49514;43.538;-5.708;2023-09-19T01:02:47;19.50;99.90
60234;DHT22;49514;43.538;-5.708;2023-09-19T01:05:14;19.50;99.90
60234;DHT22;49514;43.538;-5.708;2023-09-19T01:07:41;19.40;99.90
60234;DHT22;49514;43.538;-5.708;2023-09-19T01:10:11;19.40;99.90
60234;DHT22;49514;43.538;-5.708;2023-09-19T01:31:51;19.50;99.90
60234;DHT22;49514;43.538;-5.708;2023-09-19T01:34:20;19.50;99.90
60234;DHT22;49514;43.538;-5.708;2023-09-19T01:36:47;19.50;99.90
60234;DHT22;49514;43.538;-5.708;2023-09-19T01:39:14;19.50;99.90
60234;DHT22;49514;43.538;-5.708;2023-09-19T01:44:54;19.50;99.90
60234;DHT22;49514;43.538;-5.708;2023-09-19T01:50:36;19.40;99.90
60234;DHT22;49514;43.538;-5.708;2023-09-19T01:53:10;19.40;99.90
60234;DHT22;49514;43.538;-5.708;2023-09-19T01:55:48;19.40;99.90
60234;DHT22;49514;43.538;-5.708;2023-09-19T01:58:33;19.40;99.90
60234;DHT22;49514;43.538;-5.708;2023-09-19T02:01:01;19.50;99.90
60234;DHT22;49514;43.538;-5.708;2023-09-19T02:03:28;19.40;99.90
60234;DHT22;49514;43.538;-5.708;2023-09-19T02:05:55;19.40;99.90
60234;DHT22;49514;43.538;-5.708;2023-09-19T02:08:23;19.40;99.90
60234;DHT22;49514;43.538;-5.708;2023-09-19T02:10:53;19.40;99.90
60234;DHT22;49514;43.538;-5.708;2023-09-19T02:13:21;19.30;99.90
60234;DHT22;49514;43.538;-5.708;2023-09-19T02:15:50;19.40;99.90
60234;DHT22;49514;43.538;-5.708;2023-09-19T02:18:16;19.40;99.90
60234;DHT22;49514;43.538;-5.708;2023-09-19T02:20:44;19.40;99.90
60234;DHT22;49514;43.538;-5.708;2023-09-19T02:23:12;19.40;99.90
60234;DHT22;49514;43.538;-5.708;2023-09-19T02:25:39;19.40;99.90
60234;DHT22;49514;43.538;-5.708;2023-09-19T02:28:08;19.30;99.90
60234;DHT22;49514;43.538;-5.708;2023-09-19T02:30:35;19.30;99.90
60234;DHT22;49514;43.538;-5.708;2023-09-19T02:33:03;19.20;99.90
60234;DHT22;49514;43.538;-5.708;2023-09-19T02:35:30;19.20;99.90
60234;DHT22;49514;43.538;-5.708;2023-09-19T02:38:02;19.10;99.90
60234;DHT22;49514;43.538;-5.708;2023-09-19T02:40:33;19.00;99.90
60234;DHT22;49514;43.538;-5.708;2023-09-19T02:43:02;18.90;99.90
60234;DHT22;49514;43.538;-5.708;2023-09-19T02:45:29;18.90;99.90
60234;DHT22;49514;43.538;-5.708;2023-09-19T02:47:57;18.80;99.90
60234;DHT22;49514;43.538;-5.708;2023-09-19T02:50:24;18.70;99.90
60234;DHT22;49514;43.538;-5.708;2023-09-19T02:52:51;18.70;99.90
60234;DHT22;49514;43.538;-5.708;2023-09-19T02:55:19;18.60;99.90
60234;DHT22;49514;43.538;-5.708;2023-09-19T02:57:47;18.60;99.90
60234;DHT22;49514;43.538;-5.708;2023-09-19T03:00:14;18.60;99.90
60234;DHT22;49514;43.538;-5.708;2023-09-19T03:02:41;18.50;99.90
60234;DHT22;49514;43.538;-5.708;2023-09-19T03:05:10;18.50;99.90
60234;DHT22;49514;43.538;-5.708;2023-09-19T03:07:38;18.40;99.90
60234;DHT22;49514;43.538;-5.708;2023-09-19T03:10:08;18.40;99.90
60234;DHT22;49514;43.538;-5.708;2023-09-19T03:12:36;18.30;99.90
60234;DHT22;49514;43.538;-5.708;2023-09-19T03:15:03;18.30;99.90
60234;DHT22;49514;43.538;-5.708;2023-09-19T03:17:31;18.20;99.90
60234;DHT22;49514;43.538;-5.708;2023-09-19T03:19:59;18.20;99.90
60234;DHT22;49514;43.538;-5.708;2023-09-19T03:22:27;18.10;99.90
60234;DHT22;49514;43.538;-5.708;2023-09-19T03:24:53;18.20;99.90
60234;DHT22;49514;43.538;-5.708;2023-09-19T03:27:20;18.10;99.90
60234;DHT22;49514;43.538;-5.708;2023-09-19T03:29:48;18.00;99.90
60234;DHT22;49514;43.538;-5.708;2023-09-19T03:32:15;18.00;99.90
60234;DHT22;49514;43.538;-5.708;2023-09-19T03:34:41;17.90;99.90
60234;DHT22;49514;43.538;-5.708;2023-09-19T03:37:10;17.90;99.90
60234;DHT22;49514;43.538;-5.708;2023-09-19T03:39:37;17.80;99.90
60234;DHT22;49514;43.538;-5.708;2023-09-19T03:42:04;17.80;99.90
60234;DHT22;49514;43.538;-5.708;2023-09-19T03:44:31;17.80;99.90
60234;DHT22;49514;43.538;-5.708;2023-09-19T03:46:58;17.70;99.90
60234;DHT22;49514;43.538;-5.708;2023-09-19T03:49:25;17.70;99.90
60234;DHT22;49514;43.538;-5.708;2023-09-19T03:51:51;17.70;99.90
60234;DHT22;49514;43.538;-5.708;2023-09-19T03:54:18;17.70;99.90
60234;DHT22;49514;43.538;-5.708;2023-09-19T03:56:46;17.70;99.90
60234;DHT22;49514;43.538;-5.708;2023-09-19T03:59:12;17.70;99.90
60234;DHT22;49514;43.538;-5.708;2023-09-19T04:01:40;17.70;99.90
60234;DHT22;49514;43.538;-5.708;2023-09-19T04:04:08;17.70;99.90
60234;DHT22;49514;43.538;-5.708;2023-09-19T04:06:36;17.70;99.90
60234;DHT22;49514;43.538;-5.708;2023-09-19T04:09:03;17.70;99.90
60234;DHT22;49514;43.538;-5.708;2023-09-19T04:11:30;17.60;99.90
60234;DHT22;49514;43.538;-5.708;2023-09-19T04:13:57;17.60;99.90
60234;DHT22;49514;43.538;-5.708;2023-09-19T04:16:24;17.60;99.90
60234;DHT22;49514;43.538;-5.708;2023-09-19T04:18:51;17.60;99.90
60234;DHT22;49514;43.538;-5.708;2023-09-19T04:21:17;17.50;99.90
60234;DHT22;49514;43.538;-5.708;2023-09-19T04:23:45;17.50;99.90
60234;DHT22;49514;43.538;-5.708;2023-09-19T04:26:12;17.50;99.90
60234;DHT22;49514;43.538;-5.708;2023-09-19T04:28:39;17.40;99.90
60234;DHT22;49514;43.538;-5.708;2023-09-19T04:31:06;17.40;99.90
60234;DHT22;49514;43.538;-5.708;2023-09-19T04:33:34;17.40;99.90
60234;DHT22;49514;43.538;-5.708;2023-09-19T04:36:02;17.30;99.90
60234;DHT22;49514;43.538;-5.708;2023-09-19T04:38:31;17.30;99.90
60234;DHT22;49514;43.538;-5.708;2023-09-19T04:40:58;17.30;99.90
60234;DHT22;49514;43.538;-5.708;2023-09-19T04:43:27;17.20;99.90
60234;DHT22;49514;43.538;-5.708;2023-09-19T04:45:55;17.20;99.90
60234;DHT22;49514;43.538;-5.708;2023-09-19T04:48:22;17.10;99.90
60234;DHT22;49514;43.538;-5.708;2023-09-19T04:50:52;17.10;99.90
60234;DHT22;49514;43.538;-5.708;2023-09-19T04:53:19;17.10;99.90
60234;DHT22;49514;43.538;-5.708;2023-09-19T04:55:53;17.10;99.90
60234;DHT22;49514;43.538;-5.708;2023-09-19T04:58:22;17.10;99.90
60234;DHT22;49514;43.538;-5.708;2023-09-19T05:00:49;17.00;99.90
60234;DHT22;49514;43.538;-5.708;2023-09-19T05:03:17;17.00;99.90
60234;DHT22;49514;43.538;-5.708;2023-09-19T05:05:46;16.90;99.90
60234;DHT22;49514;43.538;-5.708;2023-09-19T05:08:13;16.90;99.90
60234;DHT22;49514;43.538;-5.708;2023-09-19T05:10:41;16.90;99.90
60234;DHT22;49514;43.538;-5.708;2023-09-19T05:13:07;16.80;99.90
60234;DHT22;49514;43.538;-5.708;2023-09-19T05:15:34;16.80;99.90
60234;DHT22;49514;43.538;-5.708;2023-09-19T05:18:02;16.80;99.90
60234;DHT22;49514;43.538;-5.708;2023-09-19T05:20:29;16.80;99.90
60234;DHT22;49514;43.538;-5.708;2023-09-19T05:23:04;16.80;99.90
60234;DHT22;49514;43.538;-5.708;2023-09-19T05:25:35;16.70;99.90
60234;DHT22;49514;43.538;-5.708;2023-09-19T05:28:09;16.70;99.90
60234;DHT22;49514;43.538;-5.708;2023-09-19T05:30:38;16.70;99.90
60234;DHT22;49514;43.538;-5.708;2023-09-19T05:33:06;16.70;99.90
60234;DHT22;49514;43.538;-5.708;2023-09-19T05:35:34;16.70;99.90
60234;DHT22;49514;43.538;-5.708;2023-09-19T05:38:03;16.60;99.90
60234;DHT22;49514;43.538;-5.708;2023-09-19T05:40:31;16.60;99.90
60234;DHT22;49514;43.538;-5.708;2023-09-19T05:42:58;16.60;99.90
60234;DHT22;49514;43.538;-5.708;2023-09-19T05:45:25;16.60;99.90
60234;DHT22;49514;43.538;-5.708;2023-09-19T05:47:52;16.50;99.90
60234;DHT22;49514;43.538;-5.708;2023-09-19T05:50:22;16.50;99.90
60234;DHT22;49514;43.538;-5.708;2023-09-19T05:52:54;16.50;99.90
60234;DHT22;49514;43.538;-5.708;2023-09-19T05:55:22;16.50;99.90
60234;DHT22;49514;43.538;-5.708;2023-09-19T05:57:52;16.50;99.90
60234;DHT22;49514;43.538;-5.708;2023-09-19T06:00:23;16.40;99.90
60234;DHT22;49514;43.538;-5.708;2023-09-19T06:02:53;16.40;99.90
60234;DHT22;49514;43.538;-5.708;2023-09-19T06:05:22;16.40;99.90
60234;DHT22;49514;43.538;-5.708;2023-09-19T06:07:49;16.30;99.90
60234;DHT22;49514;43.538;-5.708;2023-09-19T06:10:16;16.30;99.90
60234;DHT22;49514;43.538;-5.708;2023-09-19T06:12:44;16.40;99.90
60234;DHT22;49514;43.538;-5.708;2023-09-19T06:15:11;16.40;99.90
60234;DHT22;49514;43.538;-5.708;2023-09-19T06:17:53;16.40;99.90
60234;DHT22;49514;43.538;-5.708;2023-09-19T06:20:24;16.40;99.90
60234;DHT22;49514;43.538;-5.708;2023-09-19T06:22:51;16.50;99.90
60234;DHT22;49514;43.538;-5.708;2023-09-19T06:25:18;16.50;99.90
60234;DHT22;49514;43.538;-5.708;2023-09-19T06:27:49;16.50;99.90
60234;DHT22;49514;43.538;-5.708;2023-09-19T06:30:18;16.50;99.90
60234;DHT22;49514;43.538;-5.708;2023-09-19T06:32:45;16.50;99.90
60234;DHT22;49514;43.538;-5.708;2023-09-19T06:35:13;16.60;99.90
60234;DHT22;49514;43.538;-5.708;2023-09-19T06:37:41;16.60;99.90
60234;DHT22;49514;43.538;-5.708;2023-09-19T06:40:14;16.70;99.90
60234;DHT22;49514;43.538;-5.708;2023-09-19T06:42:46;16.70;99.90
60234;DHT22;49514;43.538;-5.708;2023-09-19T06:45:13;16.70;99.90
60234;DHT22;49514;43.538;-5.708;2023-09-19T06:47:48;16.70;99.90
60234;DHT22;49514;43.538;-5.708;2023-09-19T06:50:18;16.80;99.90
60234;DHT22;49514;43.538;-5.708;2023-09-19T06:52:46;16.80;99.90
60234;DHT22;49514;43.538;-5.708;2023-09-19T06:55:21;16.90;99.90
60234;DHT22;49514;43.538;-5.708;2023-09-19T06:57:51;16.90;99.90
60234;DHT22;49514;43.538;-5.708;2023-09-19T07:00:18;17.00;99.90
60234;DHT22;49514;43.538;-5.708;2023-09-19T07:03:04;17.00;99.90
60234;DHT22;49514;43.538;-5.708;2023-09-19T07:05:37;17.00;99.90
60234;DHT22;49514;43.538;-5.708;2023-09-19T07:08:06;17.10;99.90
60234;DHT22;49514;43.538;-5.708;2023-09-19T07:10:33;17.10;99.90
60234;DHT22;49514;43.538;-5.708;2023-09-19T07:13:04;17.20;99.90
60234;DHT22;49514;43.538;-5.708;2023-09-19T07:15:35;17.30;99.90
60234;DHT22;49514;43.538;-5.708;2023-09-19T07:18:06;17.40;99.90
60234;DHT22;49514;43.538;-5.708;2023-09-19T07:20:33;17.40;99.90
60234;DHT22;49514;43.538;-5.708;2023-09-19T07:23:00;17.50;99.90
60234;DHT22;49514;43.538;-5.708;2023-09-19T07:25:28;17.60;99.90
60234;DHT22;49514;43.538;-5.708;2023-09-19T07:27:57;17.60;99.90
60234;DHT22;49514;43.538;-5.708;2023-09-19T07:30:28;17.60;99.90
60234;DHT22;49514;43.538;-5.708;2023-09-19T07:32:55;17.70;99.90
60234;DHT22;49514;43.538;-5.708;2023-09-19T07:35:21;17.70;99.90
60234;DHT22;49514;43.538;-5.708;2023-09-19T07:37:49;17.70;99.90
60234;DHT22;49514;43.538;-5.708;2023-09-19T07:40:16;17.80;99.90
60234;DHT22;49514;43.538;-5.708;2023-09-19T07:42:42;17.80;99.90
60234;DHT22;49514;43.538;-5.708;2023-09-19T07:45:11;17.80;99.90
60234;DHT22;49514;43.538;-5.708;2023-09-19T07:47:47;17.80;99.90
60234;DHT22;49514;43.538;-5.708;2023-09-19T07:50:14;17.90;99.90
60234;DHT22;49514;43.538;-5.708;2023-09-19T07:52:42;17.90;99.90
60234;DHT22;49514;43.538;-5.708;2023-09-19T07:55:12;17.90;99.90
60234;DHT22;49514;43.538;-5.708;2023-09-19T07:57:43;17.90;99.90
60234;DHT22;49514;43.538;-5.708;2023-09-19T08:00:10;17.90;99.90
60234;DHT22;49514;43.538;-5.708;2023-09-19T08:02:38;18.00;99.90
60234;DHT22;49514;43.538;-5.708;2023-09-19T08:05:06;18.00;99.90
60234;DHT22;49514;43.538;-5.708;2023-09-19T08:07:40;18.10;99.90
60234;DHT22;49514;43.538;-5.708;2023-09-19T08:10:08;18.10;99.90
60234;DHT22;49514;43.538;-5.708;2023-09-19T08:12:42;18.20;99.90
60234;DHT22;49514;43.538;-5.708;2023-09-19T08:15:17;18.20;99.90
60234;DHT22;49514;43.538;-5.708;2023-09-19T08:17:47;18.30;99.90
60234;DHT22;49514;43.538;-5.708;2023-09-19T08:20:14;18.30;99.90
60234;DHT22;49514;43.538;-5.708;2023-09-19T08:22:49;18.30;99.90
60234;DHT22;49514;43.538;-5.708;2023-09-19T08:25:18;18.40;99.90
60234;DHT22;49514;43.538;-5.708;2023-09-19T08:27:46;18.50;99.90
60234;DHT22;49514;43.538;-5.708;2023-09-19T08:30:16;18.50;99.90
60234;DHT22;49514;43.538;-5.708;2023-09-19T08:32:44;18.60;99.90
60234;DHT22;49514;43.538;-5.708;2023-09-19T08:35:12;18.60;99.90
60234;DHT22;49514;43.538;-5.708;2023-09-19T08:37:38;18.70;99.90
60234;DHT22;49514;43.538;-5.708;2023-09-19T08:40:05;18.70;99.90
60234;DHT22;49514;43.538;-5.708;2023-09-19T08:42:48;18.70;99.90
60234;DHT22;49514;43.538;-5.708;2023-09-19T08:45:16;18.70;99.90
60234;DHT22;49514;43.538;-5.708;2023-09-19T08:47:45;18.80;99.90
60234;DHT22;49514;43.538;-5.708;2023-09-19T08:50:19;18.90;99.90
60234;DHT22;49514;43.538;-5.708;2023-09-19T08:52:50;18.90;99.90
60234;DHT22;49514;43.538;-5.708;2023-09-19T08:55:19;18.90;99.90
60234;DHT22;49514;43.538;-5.708;2023-09-19T08:57:49;19.00;99.90
60234;DHT22;49514;43.538;-5.708;2023-09-19T09:00:16;19.00;99.90
60234;DHT22;49514;43.538;-5.708;2023-09-19T09:02:47;19.00;99.90
60234;DHT22;49514;43.538;-5.708;2023-09-19T09:05:15;19.10;99.90
60234;DHT22;49514;43.538;-5.708;2023-09-19T09:07:52;19.10;99.90
60234;DHT22;49514;43.538;-5.708;2023-09-19T09:10:18;19.10;99.90
60234;DHT22;49514;43.538;-5.708;2023-09-19T09:12:51;19.20;99.90
60234;DHT22;49514;43.538;-5.708;2023-09-19T09:15:21;19.20;99.90
60234;DHT22;49514;43.538;-5.708;2023-09-19T09:17:49;19.30;99.90
60234;DHT22;49514;43.538;-5.708;2023-09-19T09:20:17;19.30;99.90
60234;DHT22;49514;43.538;-5.708;2023-09-19T09:22:50;19.30;99.90
60234;DHT22;49514;43.538;-5.708;2023-09-19T09:25:16;19.40;99.90
60234;DHT22;49514;43.538;-5.708;2023-09-19T09:27:45;19.40;99.90
60234;DHT22;49514;43.538;-5.708;2023-09-19T09:30:32;19.40;99.90
60234;DHT22;49514;43.538;-5.708;2023-09-19T09:33:11;19.50;99.90
60234;DHT22;49514;43.538;-5.708;2023-09-19T09:35:47;19.50;99.90
60234;DHT22;49514;43.538;-5.708;2023-09-19T09:38:21;19.60;99.90
60234;DHT22;49514;43.538;-5.708;2023-09-19T09:40:52;19.70;99.90
60234;DHT22;49514;43.538;-5.708;2023-09-19T09:43:35;19.70;99.90
60234;DHT22;49514;43.538;-5.708;2023-09-19T09:46:09;19.80;99.90
60234;DHT22;49514;43.538;-5.708;2023-09-19T09:49:05;19.90;99.90
60234;DHT22;49514;43.538;-5.708;2023-09-19T09:51:43;20.10;99.90
60234;DHT22;49514;43.538;-5.708;2023-09-19T09:54:16;20.20;99.90
60234;DHT22;49514;43.538;-5.708;2023-09-19T09:56:53;20.30;99.90
60234;DHT22;49514;43.538;-5.708;2023-09-19T09:59:21;20.50;99.90
60234;DHT22;49514;43.538;-5.708;2023-09-19T10:01:50;20.70;99.90
60234;DHT22;49514;43.538;-5.708;2023-09-19T10:04:29;20.90;99.90
60234;DHT22;49514;43.538;-5.708;2023-09-19T10:07:02;21.00;99.90
60234;DHT22;49514;43.538;-5.708;2023-09-19T10:09:45;21.10;99.90
60234;DHT22;49514;43.538;-5.708;2023-09-19T10:12:13;21.20;99.90
60234;DHT22;49514;43.538;-5.708;2023-09-19T10:14:41;21.30;99.90
60234;DHT22;49514;43.538;-5.708;2023-09-19T10:17:09;21.50;99.90
60234;DHT22;49514;43.538;-5.708;2023-09-19T10:19:37;21.60;99.90
60234;DHT22;49514;43.538;-5.708;2023-09-19T10:22:04;21.70;99.90
60234;DHT22;49514;43.538;-5.708;2023-09-19T10:24:32;21.80;99.90
60234;DHT22;49514;43.538;-5.708;2023-09-19T10:26:59;21.90;99.90
60234;DHT22;49514;43.538;-5.708;2023-09-19T10:29:29;22.00;99.90
60234;DHT22;49514;43.538;-5.708;2023-09-19T10:31:58;22.00;99.90
60234;DHT22;49514;43.538;-5.708;2023-09-19T10:34:26;22.10;99.90
60234;DHT22;49514;43.538;-5.708;2023-09-19T10:36:52;22.20;99.90
60234;DHT22;49514;43.538;-5.708;2023-09-19T10:39:20;22.30;99.90
60234;DHT22;49514;43.538;-5.708;2023-09-19T10:41:53;22.30;99.90
60234;DHT22;49514;43.538;-5.708;2023-09-19T10:44:23;22.30;99.90
60234;DHT22;49514;43.538;-5.708;2023-09-19T10:46:54;22.30;99.90
60234;DHT22;49514;43.538;-5.708;2023-09-19T10:49:21;22.40;99.90
60234;DHT22;49514;43.538;-5.708;2023-09-19T10:51:54;22.40;99.90
60234;DHT22;49514;43.538;-5.708;2023-09-19T10:54:25;22.40;99.90
60234;DHT22;49514;43.538;-5.708;2023-09-19T10:56:53;22.40;99.90
60234;DHT22;49514;43.538;-5.708;2023-09-19T10:59:20;22.50;99.90
60234;DHT22;49514;43.538;-5.708;2023-09-19T11:01:54;22.50;99.90
60234;DHT22;49514;43.538;-5.708;2023-09-19T11:07:02;22.50;99.90
60234;DHT22;49514;43.538;-5.708;2023-09-19T11:09:55;22.50;99.90
60234;DHT22;49514;43.538;-5.708;2023-09-19T11:15:00;22.60;99.90
60234;DHT22;49514;43.538;-5.708;2023-09-19T11:17:40;22.60;99.90
60234;DHT22;49514;43.538;-5.708;2023-09-19T11:30:36;22.90;99.90
60234;DHT22;49514;43.538;-5.708;2023-09-19T11:36:12;22.90;99.90
60234;DHT22;49514;43.538;-5.708;2023-09-19T11:43:50;23.00;99.90
60234;DHT22;49514;43.538;-5.708;2023-09-19T11:46:17;23.00;99.90
60234;DHT22;49514;43.538;-5.708;2023-09-19T11:48:48;23.00;99.90
60234;DHT22;49514;43.538;-5.708;2023-09-19T11:51:19;23.10;99.90
60234;DHT22;49514;43.538;-5.708;2023-09-19T11:53:50;23.30;99.90
60234;DHT22;49514;43.538;-5.708;2023-09-19T11:56:21;23.40;99.90
60234;DHT22;49514;43.538;-5.708;2023-09-19T11:58:51;23.50;99.90
60234;DHT22;49514;43.538;-5.708;2023-09-19T12:01:21;23.50;99.90
60234;DHT22;49514;43.538;-5.708;2023-09-19T12:03:58;23.50;99.90
60234;DHT22;49514;43.538;-5.708;2023-09-19T12:06:25;23.60;99.90
60234;DHT22;49514;43.538;-5.708;2023-09-19T12:08:57;23.60;99.90
60234;DHT22;49514;43.538;-5.708;2023-09-19T12:11:31;23.60;99.90
60234;DHT22;49514;43.538;-5.708;2023-09-19T12:14:01;23.60;99.90
60234;DHT22;49514;43.538;-5.708;2023-09-19T12:16:28;23.70;99.90
60234;DHT22;49514;43.538;-5.708;2023-09-19T12:18:56;23.70;99.90
60234;DHT22;49514;43.538;-5.708;2023-09-19T12:21:28;23.80;99.90
60234;DHT22;49514;43.538;-5.708;2023-09-19T12:26:42;23.80;99.90
60234;DHT22;49514;43.538;-5.708;2023-09-19T12:29:13;23.90;99.90
60234;DHT22;49514;43.538;-5.708;2023-09-19T12:31:56;24.00;99.90
60234;DHT22;49514;43.538;-5.708;2023-09-19T12:34:29;24.20;99.90
60234;DHT22;49514;43.538;-5.708;2023-09-19T12:37:14;24.70;99.90
60234;DHT22;49514;43.538;-5.708;2023-09-19T12:39:48;25.00;99.90
60234;DHT22;49514;43.538;-5.708;2023-09-19T12:42:15;25.70;99.90
60234;DHT22;49514;43.538;-5.708;2023-09-19T12:44:43;26.80;99.90
60234;DHT22;49514;43.538;-5.708;2023-09-19T12:50:04;29.30;99.90
60234;DHT22;49514;43.538;-5.708;2023-09-19T12:52:23;30.90;99.90
60234;DHT22;49514;43.538;-5.708;2023-09-19T12:54:52;32.60;99.70
60234;DHT22;49514;43.538;-5.708;2023-09-19T12:57:24;34.30;95.40
60234;DHT22;49514;43.538;-5.708;2023-09-19T12:59:53;34.80;91.00
60234;DHT22;49514;43.538;-5.708;2023-09-19T13:02:21;36.10;91.40
60234;DHT22;49514;43.538;-5.708;2023-09-19T13:04:53;36.90;79.40
60234;DHT22;49514;43.538;-5.708;2023-09-19T13:10:15;37.60;76.50
60234;DHT22;49514;43.538;-5.708;2023-09-19T13:12:43;38.80;74.00
60234;DHT22;49514;43.538;-5.708;2023-09-19T13:15:13;39.80;75.60
60234;DHT22;49514;43.538;-5.708;2023-09-19T13:17:47;40.80;74.40
60234;DHT22;49514;43.538;-5.708;2023-09-19T13:20:26;41.10;66.90
60234;DHT22;49514;43.538;-5.708;2023-09-19T13:22:58;41.80;66.80
60234;DHT22;49514;43.538;-5.708;2023-09-19T13:25:31;42.30;67.00
60234;DHT22;49514;43.538;-5.708;2023-09-19T13:27:59;42.60;66.70
60234;DHT22;49514;43.538;-5.708;2023-09-19T13:30:27;42.90;65.80
60234;DHT22;49514;43.538;-5.708;2023-09-19T13:33:10;43.50;63.60
60234;DHT22;49514;43.538;-5.708;2023-09-19T13:35:38;43.60;60.90
60234;DHT22;49514;43.538;-5.708;2023-09-19T13:38:07;44.00;61.70
60234;DHT22;49514;43.538;-5.708;2023-09-19T13:40:38;44.30;59.70
60234;DHT22;49514;43.538;-5.708;2023-09-19T13:43:08;44.90;62.70
60234;DHT22;49514;43.538;-5.708;2023-09-19T13:45:34;45.00;57.40
60234;DHT22;49514;43.538;-5.708;2023-09-19T13:48:01;45.10;58.20
60234;DHT22;49514;43.538;-5.708;2023-09-19T13:50:28;46.20;60.30
60234;DHT22;49514;43.538;-5.708;2023-09-19T13:52:55;47.10;59.80
60234;DHT22;49514;43.538;-5.708;2023-09-19T13:57:48;48.10;63.40
60234;DHT22;49514;43.538;-5.708;2023-09-19T14:00:20;47.70;54.50
60234;DHT22;49514;43.538;-5.708;2023-09-19T14:02:48;47.90;57.60
60234;DHT22;49514;43.538;-5.708;2023-09-19T14:05:15;48.10;56.60
60234;DHT22;49514;43.538;-5.708;2023-09-19T14:12:38;48.60;57.50
60234;DHT22;49514;43.538;-5.708;2023-09-19T14:15:10;48.90;53.60
60234;DHT22;49514;43.538;-5.708;2023-09-19T14:17:38;49.40;54.20
60234;DHT22;49514;43.538;-5.708;2023-09-19T14:20:05;49.80;52.90
60234;DHT22;49514;43.538;-5.708;2023-09-19T14:22:33;49.70;51.20
60234;DHT22;49514;43.538;-5.708;2023-09-19T14:24:59;49.90;50.40
60234;DHT22;49514;43.538;-5.708;2023-09-19T14:27:26;49.90;52.50
60234;DHT22;49514;43.538;-5.708;2023-09-19T14:29:52;49.80;49.50
60234;DHT22;49514;43.538;-5.708;2023-09-19T14:32:19;49.90;49.80
60234;DHT22;49514;43.538;-5.708;2023-09-19T14:34:45;50.40;49.00
60234;DHT22;49514;43.538;-5.708;2023-09-19T14:37:12;50.60;49.50
60234;DHT22;49514;43.538;-5.708;2023-09-19T14:39:38;51.10;50.60
60234;DHT22;49514;43.538;-5.708;2023-09-19T14:42:06;51.30;50.00
60234;DHT22;49514;43.538;-5.708;2023-09-19T14:44:32;51.70;48.30
60234;DHT22;49514;43.538;-5.708;2023-09-19T14:46:58;51.20;47.40
60234;DHT22;49514;43.538;-5.708;2023-09-19T14:49:25;50.40;46.50
60234;DHT22;49514;43.538;-5.708;2023-09-19T14:51:52;50.60;45.60
60234;DHT22;49514;43.538;-5.708;2023-09-19T14:54:18;50.20;45.80
60234;DHT22;49514;43.538;-5.708;2023-09-19T14:56:44;50.20;46.60
60234;DHT22;49514;43.538;-5.708;2023-09-19T14:59:11;49.30;46.70
60234;DHT22;49514;43.538;-5.708;2023-09-19T15:01:38;49.90;46.80
60234;DHT22;49514;43.538;-5.708;2023-09-19T15:04:05;49.30;46.40
60234;DHT22;49514;43.538;-5.708;2023-09-19T15:06:32;49.40;46.40
60234;DHT22;49514;43.538;-5.708;2023-09-19T15:08:58;48.80;46.30
60234;DHT22;49514;43.538;-5.708;2023-09-19T15:11:25;49.00;47.50
60234;DHT22;49514;43.538;-5.708;2023-09-19T15:13:51;49.70;47.20
60234;DHT22;49514;43.538;-5.708;2023-09-19T15:16:18;50.10;46.70
60234;DHT22;49514;43.538;-5.708;2023-09-19T15:18:45;50.10;46.60
60234;DHT22;49514;43.538;-5.708;2023-09-19T15:21:14;50.30;47.30
60234;DHT22;49514;43.538;-5.708;2023-09-19T15:23:41;50.20;46.10
60234;DHT22;49514;43.538;-5.708;2023-09-19T15:26:08;50.10;46.20
60234;DHT22;49514;43.538;-5.708;2023-09-19T15:28:34;50.30;46.90
60234;DHT22;49514;43.538;-5.708;2023-09-19T15:31:02;50.20;47.10
60234;DHT22;49514;43.538;-5.708;2023-09-19T15:33:29;50.60;47.60
60234;DHT22;49514;43.538;-5.708;2023-09-19T15:38:50;51.10;46.80
60234;DHT22;49514;43.538;-5.708;2023-09-19T15:41:20;50.70;46.70
60234;DHT22;49514;43.538;-5.708;2023-09-19T15:43:47;50.10;46.70
60234;DHT22;49514;43.538;-5.708;2023-09-19T15:46:13;50.10;47.20
60234;DHT22;49514;43.538;-5.708;2023-09-19T15:48:41;50.20;47.00
60234;DHT22;49514;43.538;-5.708;2023-09-19T15:51:08;50.10;47.10
60234;DHT22;49514;43.538;-5.708;2023-09-19T15:56:11;48.50;46.90
60234;DHT22;49514;43.538;-5.708;2023-09-19T15:58:46;48.20;47.90
60234;DHT22;49514;43.538;-5.708;2023-09-19T16:01:13;48.70;47.30
60234;DHT22;49514;43.538;-5.708;2023-09-19T16:03:45;47.40;47.20
60234;DHT22;49514;43.538;-5.708;2023-09-19T16:06:17;45.50;47.90
60234;DHT22;49514;43.538;-5.708;2023-09-19T16:08:48;45.50;48.90
60234;DHT22;49514;43.538;-5.708;2023-09-19T16:11:17;46.40;49.00
60234;DHT22;49514;43.538;-5.708;2023-09-19T16:13:44;46.60;48.40
60234;DHT22;49514;43.538;-5.708;2023-09-19T16:16:15;45.90;48.30
60234;DHT22;49514;43.538;-5.708;2023-09-19T16:18:47;44.60;48.70
60234;DHT22;49514;43.538;-5.708;2023-09-19T16:21:18;42.80;50.10
60234;DHT22;49514;43.538;-5.708;2023-09-19T16:23:46;41.30;50.90
60234;DHT22;49514;43.538;-5.708;2023-09-19T16:26:14;39.90;51.80
60234;DHT22;49514;43.538;-5.708;2023-09-19T16:28:41;38.40;54.40
60234;DHT22;49514;43.538;-5.708;2023-09-19T16:31:09;37.20;54.60
60234;DHT22;49514;43.538;-5.708;2023-09-19T16:33:39;36.40;55.00
60234;DHT22;49514;43.538;-5.708;2023-09-19T16:36:09;35.50;57.20
60234;DHT22;49514;43.538;-5.708;2023-09-19T16:38:38;35.00;57.60